sensor_id;sensor_type;location;lat;lon;timestamp;pressure;altitude;pressure_sealevel;temperature;humidity
64292;BME280;50628;51.008;13.658;2023-03-12T00:01:55;99313.19;;;-1.34;100.00
64292;BME280;50628;51.008;13.658;2023-03-12T00:07:00;99323.78;;;-1.21;100.00
64292;BME280;50628;51.008;13.658;2023-03-12T00:12:03;99319.69;;;-1.25;100.00
64292;BME280;50628;51.008;13.658;2023-03-12T00:17:06;99321.94;;;-1.17;100.00
64292;BME280;50628;51.008;13.658;2023-03-12T00:22:09;99325.78;;;-1.29;100.00
64292;BME280;50628;51.008;13.658;2023-03-12T00:27:11;99326.75;;;-1.32;100.00
64292;BME280;50628;51.008;13.658;2023-03-12T00:32:13;99330.97;;;-1.31;100.00
64292;BME280;50628;51.008;13.658;2023-03-12T00:37:16;99322.59;;;-1.34;100.00
64292;BME280;50628;51.008;13.658;2023-03-12T00:42:18;99327.00;;;-1.16;100.00
64292;BME280;50628;51.008;13.658;2023-03-12T00:47:21;99324.63;;;-1.20;100.00
64292;BME280;50628;51.008;13.658;2023-03-12T00:52:24;99329.84;;;-1.23;100.00
64292;BME280;50628;51.008;13.658;2023-03-12T00:57:26;99317.31;;;-1.29;100.00
64292;BME280;50628;51.008;13.658;2023-03-12T01:02:27;99324.13;;;-1.30;100.00
64292;BME280;50628;51.008;13.658;2023-03-12T01:07:31;99319.69;;;-1.25;100.00
64292;BME280;50628;51.008;13.658;2023-03-12T01:12:33;99330.69;;;-1.23;100.00
64292;BME280;50628;51.008;13.658;2023-03-12T01:17:35;99330.41;;;-1.17;100.00
64292;BME280;50628;51.008;13.658;2023-03-12T01:22:39;99329.72;;;-1.20;100.00
64292;BME280;50628;51.008;13.658;2023-03-12T01:27:41;99331.03;;;-1.32;100.00
64292;BME280;50628;51.008;13.658;2023-03-12T01:32:43;99326.25;;;-1.41;100.00
64292;BME280;50628;51.008;13.658;2023-03-12T01:37:46;99331.06;;;-1.34;100.00
64292;BME280;50628;51.008;13.658;2023-03-12T01:42:51;99340.63;;;-1.39;100.00
64292;BME280;50628;51.008;13.658;2023-03-12T01:47:53;99337.00;;;-1.55;100.00
64292;BME280;50628;51.008;13.658;2023-03-12T01:52:56;99343.59;;;-1.49;100.00
64292;BME280;50628;51.008;13.658;2023-03-12T01:58:00;99342.06;;;-1.54;100.00
64292;BME280;50628;51.008;13.658;2023-03-12T02:03:05;99343.28;;;-1.64;100.00
64292;BME280;50628;51.008;13.658;2023-03-12T02:08:11;99340.13;;;-1.70;100.00
64292;BME280;50628;51.008;13.658;2023-03-12T02:13:15;99335.19;;;-1.75;100.00
64292;BME280;50628;51.008;13.658;2023-03-12T02:18:19;99340.81;;;-1.89;100.00
64292;BME280;50628;51.008;13.658;2023-03-12T02:23:26;99339.19;;;-1.91;100.00
64292;BME280;50628;51.008;13.658;2023-03-12T02:28:35;99338.34;;;-1.92;100.00
64292;BME280;50628;51.008;13.658;2023-03-12T02:33:43;99337.06;;;-1.80;100.00
64292;BME280;50628;51.008;13.658;2023-03-12T02:38:46;99343.16;;;-1.84;100.00
64292;BME280;50628;51.008;13.658;2023-03-12T02:43:56;99356.81;;;-1.85;100.00
64292;BME280;50628;51.008;13.658;2023-03-12T02:49:00;99359.25;;;-1.82;100.00
64292;BME280;50628;51.008;13.658;2023-03-12T02:54:02;99359.25;;;-1.82;100.00
64292;BME280;50628;51.008;13.658;2023-03-12T02:59:06;99366.13;;;-1.84;100.00
64292;BME280;50628;51.008;13.658;2023-03-12T03:04:12;99372.94;;;-1.85;100.00
64292;BME280;50628;51.008;13.658;2023-03-12T03:09:15;99358.03;;;-1.72;100.00
64292;BME280;50628;51.008;13.658;2023-03-12T03:14:19;99361.63;;;-1.78;100.00
64292;BME280;50628;51.008;13.658;2023-03-12T03:19:24;99362.19;;;-1.69;100.00
64292;BME280;50628;51.008;13.658;2023-03-12T03:24:25;99368.44;;;-1.55;100.00
64292;BME280;50628;51.008;13.658;2023-03-12T03:29:29;99380.09;;;-1.47;100.00
64292;BME280;50628;51.008;13.658;2023-03-12T03:34:31;99389.78;;;-1.34;100.00
64292;BME280;50628;51.008;13.658;2023-03-12T03:39:33;99394.56;;;-1.24;100.00
64292;BME280;50628;51.008;13.658;2023-03-12T03:44:37;99404.84;;;-1.04;100.00
64292;BME280;50628;51.008;13.658;2023-03-12T03:49:39;99402.88;;;-1.19;100.00
64292;BME280;50628;51.008;13.658;2023-03-12T03:54:41;99414.50;;;-1.34;100.00
64292;BME280;50628;51.008;13.658;2023-03-12T03:59:45;99406.69;;;-1.07;100.00
64292;BME280;50628;51.008;13.658;2023-03-12T04:04:47;99411.34;;;-0.95;100.00
64292;BME280;50628;51.008;13.658;2023-03-12T04:09:49;99411.31;;;-0.73;100.00
64292;BME280;50628;51.008;13.658;2023-03-12T04:14:52;99410.31;;;-1.13;100.00
64292;BME280;50628;51.008;13.658;2023-03-12T04:19:54;99403.75;;;-1.42;100.00
64292;BME280;50628;51.008;13.658;2023-03-12T04:24:57;99409.66;;;-1.42;100.00
64292;BME280;50628;51.008;13.658;2023-03-12T04:30:01;99413.25;;;-1.46;100.00
64292;BME280;50628;51.008;13.658;2023-03-12T04:35:03;99410.84;;;-1.99;100.00
64292;BME280;50628;51.008;13.658;2023-03-12T04:40:06;99406.38;;;-2.18;100.00
64292;BME280;50628;51.008;13.658;2023-03-12T04:45:11;99411.75;;;-2.25;100.00
64292;BME280;50628;51.008;13.658;2023-03-12T04:50:18;99415.34;;;-1.81;100.00
64292;BME280;50628;51.008;13.658;2023-03-12T04:55:20;99423.81;;;-2.05;100.00
64292;BME280;50628;51.008;13.658;2023-03-12T05:00:23;99424.78;;;-2.34;100.00
64292;BME280;50628;51.008;13.658;2023-03-12T05:05:27;99429.66;;;-2.53;100.00
64292;BME280;50628;51.008;13.658;2023-03-12T05:10:29;99436.47;;;-2.54;100.00
64292;BME280;50628;51.008;13.658;2023-03-12T05:15:36;99430.22;;;-2.44;100.00
64292;BME280;50628;51.008;13.658;2023-03-12T05:20:38;99431.47;;;-2.84;100.00
64292;BME280;50628;51.008;13.658;2023-03-12T05:25:41;99433.69;;;-3.01;100.00
64292;BME280;50628;51.008;13.658;2023-03-12T05:30:45;99433.00;;;-3.06;100.00
64292;BME280;50628;51.008;13.658;2023-03-12T05:35:47;99436.78;;;-2.91;100.00
64292;BME280;50628;51.008;13.658;2023-03-12T05:40:51;99442.81;;;-2.94;100.00
64292;BME280;50628;51.008;13.658;2023-03-12T05:45:59;99448.25;;;-2.78;100.00
64292;BME280;50628;51.008;13.658;2023-03-12T05:51:01;99441.41;;;-2.76;100.00
64292;BME280;50628;51.008;13.658;2023-03-12T05:56:07;99441.03;;;-2.64;100.00
64292;BME280;50628;51.008;13.658;2023-03-12T06:01:12;99446.56;;;-2.51;100.00
64292;BME280;50628;51.008;13.658;2023-03-12T06:06:16;99447.19;;;-1.92;100.00
64292;BME280;50628;51.008;13.658;2023-03-12T06:11:18;99441.44;;;-1.74;100.00
64292;BME280;50628;51.008;13.658;2023-03-12T06:16:24;99439.63;;;-1.47;100.00
64292;BME280;50628;51.008;13.658;2023-03-12T06:21:29;99442.66;;;-1.14;100.00
64292;BME280;50628;51.008;13.658;2023-03-12T06:26:33;99443.53;;;-1.37;100.00
64292;BME280;50628;51.008;13.658;2023-03-12T06:31:36;99445.47;;;-0.76;100.00
64292;BME280;50628;51.008;13.658;2023-03-12T06:36:39;99444.03;;;-0.61;100.00
64292;BME280;50628;51.008;13.658;2023-03-12T06:41:40;99437.81;;;-0.76;100.00
64292;BME280;50628;51.008;13.658;2023-03-12T06:46:44;99444.44;;;-0.70;100.00
64292;BME280;50628;51.008;13.658;2023-03-12T06:51:45;99435.72;;;-0.66;100.00
64292;BME280;50628;51.008;13.658;2023-03-12T06:56:47;99440.19;;;-0.49;100.00
64292;BME280;50628;51.008;13.658;2023-03-12T07:01:50;99445.28;;;-0.27;100.00
64292;BME280;50628;51.008;13.658;2023-03-12T07:06:53;99448.91;;;-0.33;100.00
64292;BME280;50628;51.008;13.658;2023-03-12T07:11:55;99435.66;;;-0.42;100.00
64292;BME280;50628;51.008;13.658;2023-03-12T07:16:58;99433.91;;;-0.20;100.00
64292;BME280;50628;51.008;13.658;2023-03-12T07:22:01;99425.94;;;0.07;100.00
64292;BME280;50628;51.008;13.658;2023-03-12T07:27:03;99432.53;;;0.12;100.00
64292;BME280;50628;51.008;13.658;2023-03-12T07:32:06;99439.47;;;0.29;100.00
64292;BME280;50628;51.008;13.658;2023-03-12T07:37:08;99429.78;;;0.56;100.00
64292;BME280;50628;51.008;13.658;2023-03-12T07:42:10;99426.03;;;0.63;100.00
64292;BME280;50628;51.008;13.658;2023-03-12T07:47:14;99419.78;;;0.88;100.00
64292;BME280;50628;51.008;13.658;2023-03-12T07:52:16;99418.84;;;1.08;100.00
64292;BME280;50628;51.008;13.658;2023-03-12T07:57:19;99427.19;;;1.30;100.00
64292;BME280;50628;51.008;13.658;2023-03-12T08:02:22;99430.13;;;1.77;100.00
64292;BME280;50628;51.008;13.658;2023-03-12T08:07:24;99436.31;;;1.90;99.22
64292;BME280;50628;51.008;13.658;2023-03-12T08:12:31;99437.34;;;2.03;95.27
64292;BME280;50628;51.008;13.658;2023-03-12T08:17:35;99434.53;;;2.25;91.29
64292;BME280;50628;51.008;13.658;2023-03-12T08:22:37;99427.84;;;2.54;90.56
64292;BME280;50628;51.008;13.658;2023-03-12T08:27:39;99431.34;;;2.53;86.59
64292;BME280;50628;51.008;13.658;2023-03-12T08:32:43;99440.66;;;2.23;83.83
64292;BME280;50628;51.008;13.658;2023-03-12T08:37:44;99447.53;;;2.22;84.71
64292;BME280;50628;51.008;13.658;2023-03-12T08:42:46;99436.78;;;2.14;83.60
64292;BME280;50628;51.008;13.658;2023-03-12T08:47:50;99441.16;;;2.29;83.86
64292;BME280;50628;51.008;13.658;2023-03-12T08:52:51;99439.91;;;2.70;85.84
64292;BME280;50628;51.008;13.658;2023-03-12T08:57:53;99436.25;;;2.58;81.54
64292;BME280;50628;51.008;13.658;2023-03-12T09:02:56;99429.78;;;2.67;79.68
64292;BME280;50628;51.008;13.658;2023-03-12T09:07:58;99430.81;;;2.80;77.26
64292;BME280;50628;51.008;13.658;2023-03-12T09:13:00;99432.88;;;2.89;76.90
64292;BME280;50628;51.008;13.658;2023-03-12T09:18:04;99432.53;;;3.11;74.86
64292;BME280;50628;51.008;13.658;2023-03-12T09:23:06;99419.53;;;3.44;73.56
64292;BME280;50628;51.008;13.658;2023-03-12T09:28:07;99419.66;;;3.73;72.31
64292;BME280;50628;51.008;13.658;2023-03-12T09:33:11;99413.16;;;3.96;70.57
64292;BME280;50628;51.008;13.658;2023-03-12T09:38:14;99414.63;;;3.86;67.48
64292;BME280;50628;51.008;13.658;2023-03-12T09:43:21;99403.06;;;3.93;67.32
64292;BME280;50628;51.008;13.658;2023-03-12T09:48:32;99400.56;;;4.34;65.68
64292;BME280;50628;51.008;13.658;2023-03-12T09:53:37;99396.16;;;4.37;63.75
64292;BME280;50628;51.008;13.658;2023-03-12T09:58:43;99399.38;;;4.40;62.81
64292;BME280;50628;51.008;13.658;2023-03-12T10:04:12;99389.72;;;4.29;61.25
64292;BME280;50628;51.008;13.658;2023-03-12T10:09:28;99383.09;;;4.54;60.14
64292;BME280;50628;51.008;13.658;2023-03-12T10:14:44;99377.28;;;4.50;58.75
64292;BME280;50628;51.008;13.658;2023-03-12T10:20:06;99365.66;;;4.72;58.50
64292;BME280;50628;51.008;13.658;2023-03-12T10:25:19;99374.59;;;4.93;55.10
64292;BME280;50628;51.008;13.658;2023-03-12T10:30:25;99362.09;;;5.14;56.71
64292;BME280;50628;51.008;13.658;2023-03-12T10:35:29;99343.50;;;5.09;53.69
64292;BME280;50628;51.008;13.658;2023-03-12T10:40:34;99347.66;;;4.85;54.26
64292;BME280;50628;51.008;13.658;2023-03-12T10:45:39;99348.53;;;5.38;52.76
64292;BME280;50628;51.008;13.658;2023-03-12T10:51:00;99334.16;;;5.34;52.11
64292;BME280;50628;51.008;13.658;2023-03-12T10:56:06;99333.78;;;5.40;52.86
64292;BME280;50628;51.008;13.658;2023-03-12T11:01:17;99332.31;;;5.36;52.80
64292;BME280;50628;51.008;13.658;2023-03-12T11:06:24;99329.28;;;5.16;53.59
64292;BME280;50628;51.008;13.658;2023-03-12T11:11:31;99322.75;;;5.51;52.58
64292;BME280;50628;51.008;13.658;2023-03-12T11:16:33;99313.25;;;5.64;52.99
64292;BME280;50628;51.008;13.658;2023-03-12T11:21:37;99309.31;;;5.71;52.53
64292;BME280;50628;51.008;13.658;2023-03-12T11:26:46;99299.31;;;5.92;53.56
64292;BME280;50628;51.008;13.658;2023-03-12T11:31:59;99296.91;;;5.89;51.52
64292;BME280;50628;51.008;13.658;2023-03-12T11:37:09;99300.75;;;5.96;52.51
64292;BME280;50628;51.008;13.658;2023-03-12T11:42:22;99280.59;;;6.51;49.79
64292;BME280;50628;51.008;13.658;2023-03-12T11:47:39;99271.25;;;7.21;49.82
64292;BME280;50628;51.008;13.658;2023-03-12T11:52:58;99268.84;;;7.06;45.63
64292;BME280;50628;51.008;13.658;2023-03-12T11:58:19;99252.56;;;7.40;44.48
64292;BME280;50628;51.008;13.658;2023-03-12T12:09:09;99219.44;;;7.09;46.52
64292;BME280;50628;51.008;13.658;2023-03-12T12:14:24;99213.81;;;7.27;48.97
64292;BME280;50628;51.008;13.658;2023-03-12T12:19:50;99210.66;;;7.23;49.70
64292;BME280;50628;51.008;13.658;2023-03-12T12:25:26;99197.56;;;7.13;48.62
64292;BME280;50628;51.008;13.658;2023-03-12T12:30:41;99198.03;;;7.07;50.41
64292;BME280;50628;51.008;13.658;2023-03-12T12:35:49;99173.09;;;7.18;53.24
64292;BME280;50628;51.008;13.658;2023-03-12T12:40:54;99168.63;;;7.20;53.47
64292;BME280;50628;51.008;13.658;2023-03-12T12:45:59;99159.16;;;6.85;52.82
64292;BME280;50628;51.008;13.658;2023-03-12T12:51:03;99149.59;;;6.63;53.93
64292;BME280;50628;51.008;13.658;2023-03-12T12:56:12;99153.63;;;6.78;53.94
64292;BME280;50628;51.008;13.658;2023-03-12T13:01:16;99153.34;;;6.59;54.19
64292;BME280;50628;51.008;13.658;2023-03-12T13:06:18;99148.41;;;6.56;54.59
64292;BME280;50628;51.008;13.658;2023-03-12T13:11:27;99146.00;;;6.41;55.66
64292;BME280;50628;51.008;13.658;2023-03-12T13:16:35;99144.69;;;6.36;56.26
64292;BME280;50628;51.008;13.658;2023-03-12T13:21:39;99137.34;;;6.65;57.55
64292;BME280;50628;51.008;13.658;2023-03-12T13:26:51;99133.31;;;6.49;56.71
64292;BME280;50628;51.008;13.658;2023-03-12T13:31:54;99140.22;;;6.38;55.96
64292;BME280;50628;51.008;13.658;2023-03-12T13:36:59;99143.31;;;6.19;56.78
64292;BME280;50628;51.008;13.658;2023-03-12T13:42:34;99140.22;;;6.38;56.79
64292;BME280;50628;51.008;13.658;2023-03-12T13:47:41;99132.59;;;6.47;56.84
64292;BME280;50628;51.008;13.658;2023-03-12T13:52:46;99138.91;;;6.32;55.03
64292;BME280;50628;51.008;13.658;2023-03-12T13:57:54;99131.34;;;6.18;55.08
64292;BME280;50628;51.008;13.658;2023-03-12T14:02:59;99145.91;;;6.19;57.20
64292;BME280;50628;51.008;13.658;2023-03-12T14:08:33;99142.16;;;5.86;57.11
64292;BME280;50628;51.008;13.658;2023-03-12T14:13:54;99150.94;;;5.96;59.58
64292;BME280;50628;51.008;13.658;2023-03-12T14:18:59;99142.06;;;5.88;63.36
64292;BME280;50628;51.008;13.658;2023-03-12T14:24:05;99139.94;;;5.69;67.03
64292;BME280;50628;51.008;13.658;2023-03-12T14:29:18;99149.72;;;5.14;84.27
64292;BME280;50628;51.008;13.658;2023-03-12T14:34:23;99140.78;;;4.94;100.00
64292;BME280;50628;51.008;13.658;2023-03-12T14:39:30;99134.72;;;4.55;100.00
64292;BME280;50628;51.008;13.658;2023-03-12T14:44:36;99139.22;;;3.99;100.00
64292;BME280;50628;51.008;13.658;2023-03-12T14:49:41;99134.09;;;4.11;100.00
64292;BME280;50628;51.008;13.658;2023-03-12T14:54:52;99129.44;;;4.04;100.00
64292;BME280;50628;51.008;13.658;2023-03-12T14:59:56;99124.78;;;3.96;100.00
64292;BME280;50628;51.008;13.658;2023-03-12T15:05:00;99108.44;;;4.10;100.00
64292;BME280;50628;51.008;13.658;2023-03-12T15:10:05;99108.59;;;3.94;100.00
64292;BME280;50628;51.008;13.658;2023-03-12T15:15:22;99091.34;;;4.09;100.00
64292;BME280;50628;51.008;13.658;2023-03-12T15:20:26;99088.69;;;3.83;100.00
64292;BME280;50628;51.008;13.658;2023-03-12T15:25:30;99085.72;;;3.89;100.00
64292;BME280;50628;51.008;13.658;2023-03-12T15:30:35;99075.44;;;4.02;100.00
64292;BME280;50628;51.008;13.658;2023-03-12T15:35:40;99045.59;;;4.12;100.00
64292;BME280;50628;51.008;13.658;2023-03-12T15:40:47;99032.88;;;4.49;100.00
64292;BME280;50628;51.008;13.658;2023-03-12T15:45:57;99028.34;;;4.40;100.00
64292;BME280;50628;51.008;13.658;2023-03-12T15:51:00;99023.91;;;4.42;100.00
64292;BME280;50628;51.008;13.658;2023-03-12T15:56:04;99037.00;;;4.52;100.00
64292;BME280;50628;51.008;13.658;2023-03-12T16:01:11;99025.75;;;4.53;100.00
64292;BME280;50628;51.008;13.658;2023-03-12T16:06:16;99021.94;;;4.46;100.00
64292;BME280;50628;51.008;13.658;2023-03-12T16:11:20;99022.34;;;4.65;100.00
64292;BME280;50628;51.008;13.658;2023-03-12T16:16:24;99005.84;;;4.81;100.00
64292;BME280;50628;51.008;13.658;2023-03-12T16:21:25;99009.47;;;4.78;100.00
64292;BME280;50628;51.008;13.658;2023-03-12T16:26:27;99005.47;;;4.74;100.00
64292;BME280;50628;51.008;13.658;2023-03-12T16:31:31;99017.41;;;4.88;100.00
64292;BME280;50628;51.008;13.658;2023-03-12T16:36:33;99008.22;;;4.84;100.00
64292;BME280;50628;51.008;13.658;2023-03-12T16:41:34;99009.34;;;4.92;100.00
64292;BME280;50628;51.008;13.658;2023-03-12T16:46:38;99004.81;;;4.83;100.00
64292;BME280;50628;51.008;13.658;2023-03-12T16:51:40;99016.34;;;4.90;100.00
64292;BME280;50628;51.008;13.658;2023-03-12T16:56:43;99009.44;;;4.91;100.00
64292;BME280;50628;51.008;13.658;2023-03-12T17:01:48;99002.34;;;4.94;100.00
64292;BME280;50628;51.008;13.658;2023-03-12T17:06:50;99003.66;;;5.00;100.00
64292;BME280;50628;51.008;13.658;2023-03-12T17:11:52;99007.47;;;5.07;100.00
64292;BME280;50628;51.008;13.658;2023-03-12T17:16:56;98999.81;;;5.06;100.00
64292;BME280;50628;51.008;13.658;2023-03-12T17:21:58;99000.66;;;4.93;100.00
64292;BME280;50628;51.008;13.658;2023-03-12T17:27:00;99003.56;;;4.89;100.00
64292;BME280;50628;51.008;13.658;2023-03-12T17:32:03;99005.94;;;4.92;100.00
64292;BME280;50628;51.008;13.658;2023-03-12T17:37:05;99038.75;;;4.90;100.00
64292;BME280;50628;51.008;13.658;2023-03-12T17:42:07;99029.97;;;4.92;100.00
64292;BME280;50628;51.008;13.658;2023-03-12T17:47:10;99023.34;;;5.01;100.00
64292;BME280;50628;51.008;13.658;2023-03-12T17:52:12;99019.94;;;5.01;100.00
64292;BME280;50628;51.008;13.658;2023-03-12T17:57:14;99026.44;;;5.06;100.00
64292;BME280;50628;51.008;13.658;2023-03-12T18:02:17;99041.38;;;5.14;100.00
64292;BME280;50628;51.008;13.658;2023-03-12T18:07:19;99016.22;;;5.17;100.00
64292;BME280;50628;51.008;13.658;2023-03-12T18:12:21;99026.94;;;5.24;100.00
64292;BME280;50628;51.008;13.658;2023-03-12T18:17:24;99024.22;;;5.26;100.00
64292;BME280;50628;51.008;13.658;2023-03-12T18:22:26;99028.63;;;5.36;100.00
64292;BME280;50628;51.008;13.658;2023-03-12T18:27:28;99044.00;;;5.38;100.00
64292;BME280;50628;51.008;13.658;2023-03-12T18:32:31;99041.06;;;5.55;100.00
64292;BME280;50628;51.008;13.658;2023-03-12T18:37:34;99050.84;;;5.63;100.00
64292;BME280;50628;51.008;13.658;2023-03-12T18:42:36;99047.00;;;5.69;100.00
64292;BME280;50628;51.008;13.658;2023-03-12T18:47:44;99042.44;;;5.72;100.00
64292;BME280;50628;51.008;13.658;2023-03-12T18:52:49;99032.88;;;5.85;100.00
64292;BME280;50628;51.008;13.658;2023-03-12T18:57:51;99028.09;;;5.92;100.00
64292;BME280;50628;51.008;13.658;2023-03-12T19:02:54;99035.44;;;5.98;100.00
64292;BME280;50628;51.008;13.658;2023-03-12T19:07:56;99040.63;;;6.10;100.00
64292;BME280;50628;51.008;13.658;2023-03-12T19:12:58;99048.03;;;6.14;100.00
64292;BME280;50628;51.008;13.658;2023-03-12T19:18:01;99065.34;;;6.25;100.00
64292;BME280;50628;51.008;13.658;2023-03-12T19:23:03;99050.25;;;6.43;100.00
64292;BME280;50628;51.008;13.658;2023-03-12T19:28:05;99048.81;;;6.50;100.00
64292;BME280;50628;51.008;13.658;2023-03-12T19:33:08;99052.16;;;6.63;100.00
64292;BME280;50628;51.008;13.658;2023-03-12T19:38:10;99043.44;;;6.64;100.00
64292;BME280;50628;51.008;13.658;2023-03-12T19:43:12;99041.56;;;6.66;100.00
64292;BME280;50628;51.008;13.658;2023-03-12T19:48:15;99030.53;;;6.64;100.00
64292;BME280;50628;51.008;13.658;2023-03-12T19:53:17;99044.06;;;6.68;100.00
64292;BME280;50628;51.008;13.658;2023-03-12T19:58:19;99043.81;;;6.71;100.00
64292;BME280;50628;51.008;13.658;2023-03-12T20:03:23;99050.63;;;6.72;100.00
64292;BME280;50628;51.008;13.658;2023-03-12T20:08:25;99059.56;;;6.68;100.00
64292;BME280;50628;51.008;13.658;2023-03-12T20:13:30;99065.44;;;6.70;100.00
64292;BME280;50628;51.008;13.658;2023-03-12T20:18:34;99057.56;;;6.71;100.00
64292;BME280;50628;51.008;13.658;2023-03-12T20:23:35;99063.69;;;6.70;100.00
64292;BME280;50628;51.008;13.658;2023-03-12T20:28:37;99073.81;;;6.74;100.00
64292;BME280;50628;51.008;13.658;2023-03-12T20:39:23;99061.81;;;6.84;100.00
64292;BME280;50628;51.008;13.658;2023-03-12T20:44:25;99049.59;;;6.86;100.00
64292;BME280;50628;51.008;13.658;2023-03-12T20:49:27;99055.00;;;6.94;100.00
64292;BME280;50628;51.008;13.658;2023-03-12T20:54:30;99065.56;;;7.02;100.00
64292;BME280;50628;51.008;13.658;2023-03-12T20:59:33;99056.91;;;7.03;100.00
64292;BME280;50628;51.008;13.658;2023-03-12T21:04:35;99050.88;;;7.14;100.00
64292;BME280;50628;51.008;13.658;2023-03-12T21:09:38;99055.34;;;7.12;100.00
64292;BME280;50628;51.008;13.658;2023-03-12T21:14:40;99060.28;;;7.15;100.00
64292;BME280;50628;51.008;13.658;2023-03-12T21:19:42;99061.34;;;7.24;100.00
64292;BME280;50628;51.008;13.658;2023-03-12T21:24:47;99069.69;;;7.27;100.00
64292;BME280;50628;51.008;13.658;2023-03-12T21:29:49;99056.97;;;7.35;100.00
64292;BME280;50628;51.008;13.658;2023-03-12T21:34:51;99052.13;;;7.42;100.00
64292;BME280;50628;51.008;13.658;2023-03-12T21:39:54;99041.19;;;7.50;100.00
64292;BME280;50628;51.008;13.658;2023-03-12T21:45:00;99036.94;;;7.49;100.00
64292;BME280;50628;51.008;13.658;2023-03-12T21:50:03;99036.84;;;7.39;100.00
64292;BME280;50628;51.008;13.658;2023-03-12T21:55:07;99027.78;;;7.45;100.00
64292;BME280;50628;51.008;13.658;2023-03-12T22:00:11;99025.53;;;7.40;100.00
64292;BME280;50628;51.008;13.658;2023-03-12T22:05:13;99014.81;;;7.45;100.00
64292;BME280;50628;51.008;13.658;2023-03-12T22:10:17;99011.06;;;7.49;100.00
64292;BME280;50628;51.008;13.658;2023-03-12T22:15:18;99014.66;;;7.57;100.00
64292;BME280;50628;51.008;13.658;2023-03-12T22:20:20;99018.06;;;7.58;100.00
64292;BME280;50628;51.008;13.658;2023-03-12T22:25:23;99008.88;;;7.65;100.00
64292;BME280;50628;51.008;13.658;2023-03-12T22:30:25;99004.97;;;7.71;100.00
64292;BME280;50628;51.008;13.658;2023-03-12T22:35:27;98993.31;;;7.76;100.00
64292;BME280;50628;51.008;13.658;2023-03-12T22:40:30;98994.44;;;7.84;100.00
64292;BME280;50628;51.008;13.658;2023-03-12T22:45:32;98988.44;;;7.83;100.00
64292;BME280;50628;51.008;13.658;2023-03-12T22:50:35;98992.28;;;7.68;100.00
64292;BME280;50628;51.008;13.658;2023-03-12T22:55:38;98994.66;;;7.59;100.00
64292;BME280;50628;51.008;13.658;2023-03-12T23:00:40;98990.75;;;7.65;100.00
64292;BME280;50628;51.008;13.658;2023-03-12T23:05:42;98991.38;;;7.57;100.00
64292;BME280;50628;51.008;13.658;2023-03-12T23:10:50;98983.94;;;7.64;100.00
64292;BME280;50628;51.008;13.658;2023-03-12T23:15:52;98981.34;;;7.64;100.00
64292;BME280;50628;51.008;13.658;2023-03-12T23:20:57;98988.50;;;7.72;100.00
64292;BME280;50628;51.008;13.658;2023-03-12T23:26:01;98986.63;;;7.74;100.00
64292;BME280;50628;51.008;13.658;2023-03-12T23:31:07;98976.00;;;7.77;100.00
64292;BME280;50628;51.008;13.658;2023-03-12T23:36:11;98978.38;;;7.69;100.00
64292;BME280;50628;51.008;13.658;2023-03-12T23:41:17;98966.56;;;7.76;100.00
64292;BME280;50628;51.008;13.658;2023-03-12T23:46:19;98975.41;;;7.73;100.00
64292;BME280;50628;51.008;13.658;2023-03-12T23:51:22;98975.28;;;7.75;100.00
64292;BME280;50628;51.008;13.658;2023-03-12T23:56:30;98972.66;;;7.86;100.00
